sensor_id;sensor_type;location;lat;lon;timestamp;temperature;humidity
71291;DHT22;59073;51.994;4.448;2023-06-04T00:00:03;14.76;69.32
71291;DHT22;59073;51.994;4.448;2023-06-04T00:02:29;14.78;68.61
71291;DHT22;59073;51.994;4.448;2023-06-04T00:04:54;14.86;68.55
71291;DHT22;59073;51.994;4.448;2023-06-04T00:07:20;14.90;68.39
71291;DHT22;59073;51.994;4.448;2023-06-04T00:09:45;14.89;67.23
71291;DHT22;59073;51.994;4.448;2023-06-04T00:12:12;14.86;67.89
71291;DHT22;59073;51.994;4.448;2023-06-04T00:14:38;14.78;67.98
71291;DHT22;59073;51.994;4.448;2023-06-04T00:17:03;14.78;67.45
71291;DHT22;59073;51.994;4.448;2023-06-04T00:19:29;14.78;67.17
71291;DHT22;59073;51.994;4.448;2023-06-04T00:21:54;14.64;67.57
71291;DHT22;59073;51.994;4.448;2023-06-04T00:24:20;14.67;67.67
71291;DHT22;59073;51.994;4.448;2023-06-04T00:26:45;14.55;68.00
71291;DHT22;59073;51.994;4.448;2023-06-04T00:29:11;14.52;67.48
71291;DHT22;59073;51.994;4.448;2023-06-04T00:31:36;14.57;67.17
71291;DHT22;59073;51.994;4.448;2023-06-04T00:34:05;14.62;66.71
71291;DHT22;59073;51.994;4.448;2023-06-04T00:36:31;14.57;66.64
71291;DHT22;59073;51.994;4.448;2023-06-04T00:38:56;14.54;66.63
71291;DHT22;59073;51.994;4.448;2023-06-04T00:41:22;14.41;67.26
71291;DHT22;59073;51.994;4.448;2023-06-04T00:43:47;14.40;67.03
71291;DHT22;59073;51.994;4.448;2023-06-04T00:46:28;14.54;65.99
71291;DHT22;59073;51.994;4.448;2023-06-04T00:48:55;14.40;66.59
71291;DHT22;59073;51.994;4.448;2023-06-04T00:51:21;14.30;66.46
71291;DHT22;59073;51.994;4.448;2023-06-04T00:53:49;14.34;66.05
71291;DHT22;59073;51.994;4.448;2023-06-04T00:56:15;14.37;66.47
71291;DHT22;59073;51.994;4.448;2023-06-04T00:58:41;14.30;65.93
71291;DHT22;59073;51.994;4.448;2023-06-04T01:01:56;14.32;65.81
71291;DHT22;59073;51.994;4.448;2023-06-04T01:04:04;14.31;66.22
71291;DHT22;59073;51.994;4.448;2023-06-04T01:06:43;14.24;66.53
71291;DHT22;59073;51.994;4.448;2023-06-04T01:09:09;14.06;67.17
71291;DHT22;59073;51.994;4.448;2023-06-04T01:11:37;14.06;67.63
71291;DHT22;59073;51.994;4.448;2023-06-04T01:14:05;13.91;67.63
71291;DHT22;59073;51.994;4.448;2023-06-04T01:16:47;13.93;67.35
71291;DHT22;59073;51.994;4.448;2023-06-04T01:25:20;14.11;66.36
71291;DHT22;59073;51.994;4.448;2023-06-04T01:27:50;14.09;66.38
71291;DHT22;59073;51.994;4.448;2023-06-04T01:30:21;13.97;67.00
71291;DHT22;59073;51.994;4.448;2023-06-04T01:32:48;14.01;66.49
71291;DHT22;59073;51.994;4.448;2023-06-04T01:35:14;14.13;66.24
71291;DHT22;59073;51.994;4.448;2023-06-04T01:37:39;14.07;66.21
71291;DHT22;59073;51.994;4.448;2023-06-04T01:40:05;13.94;67.37
71291;DHT22;59073;51.994;4.448;2023-06-04T01:42:33;13.81;66.70
71291;DHT22;59073;51.994;4.448;2023-06-04T01:44:58;13.79;66.77
71291;DHT22;59073;51.994;4.448;2023-06-04T01:47:24;13.65;67.58
71291;DHT22;59073;51.994;4.448;2023-06-04T01:49:49;13.72;66.72
71291;DHT22;59073;51.994;4.448;2023-06-04T01:52:15;13.76;67.16
71291;DHT22;59073;51.994;4.448;2023-06-04T01:54:41;13.79;66.79
71291;DHT22;59073;51.994;4.448;2023-06-04T01:57:08;13.74;66.91
71291;DHT22;59073;51.994;4.448;2023-06-04T01:59:35;13.66;66.63
71291;DHT22;59073;51.994;4.448;2023-06-04T02:02:02;13.66;66.81
71291;DHT22;59073;51.994;4.448;2023-06-04T02:04:28;13.63;67.19
71291;DHT22;59073;51.994;4.448;2023-06-04T02:06:53;13.55;67.04
71291;DHT22;59073;51.994;4.448;2023-06-04T02:09:19;13.59;66.42
71291;DHT22;59073;51.994;4.448;2023-06-04T02:11:44;13.65;66.31
71291;DHT22;59073;51.994;4.448;2023-06-04T02:14:10;13.60;66.65
71291;DHT22;59073;51.994;4.448;2023-06-04T02:16:35;13.67;66.27
71291;DHT22;59073;51.994;4.448;2023-06-04T02:19:01;13.55;66.84
71291;DHT22;59073;51.994;4.448;2023-06-04T02:21:26;13.43;66.66
71291;DHT22;59073;51.994;4.448;2023-06-04T02:23:51;13.34;67.10
71291;DHT22;59073;51.994;4.448;2023-06-04T02:26:17;13.39;66.50
71291;DHT22;59073;51.994;4.448;2023-06-04T02:28:42;13.41;66.08
71291;DHT22;59073;51.994;4.448;2023-06-04T02:31:08;13.35;66.19
71291;DHT22;59073;51.994;4.448;2023-06-04T02:33:33;13.38;66.24
71291;DHT22;59073;51.994;4.448;2023-06-04T02:35:58;13.39;66.05
71291;DHT22;59073;51.994;4.448;2023-06-04T02:38:24;13.35;65.88
71291;DHT22;59073;51.994;4.448;2023-06-04T02:40:49;13.31;65.88
71291;DHT22;59073;51.994;4.448;2023-06-04T02:43:15;13.26;65.42
71291;DHT22;59073;51.994;4.448;2023-06-04T02:45:40;13.39;65.44
71291;DHT22;59073;51.994;4.448;2023-06-04T02:48:06;13.34;65.49
71291;DHT22;59073;51.994;4.448;2023-06-04T02:50:32;13.31;65.17
71291;DHT22;59073;51.994;4.448;2023-06-04T02:52:59;13.25;65.15
71291;DHT22;59073;51.994;4.448;2023-06-04T02:55:24;13.25;64.68
71291;DHT22;59073;51.994;4.448;2023-06-04T02:57:50;13.32;64.87
71291;DHT22;59073;51.994;4.448;2023-06-04T03:00:17;13.25;64.63
71291;DHT22;59073;51.994;4.448;2023-06-04T03:02:45;13.21;64.79
71291;DHT22;59073;51.994;4.448;2023-06-04T03:05:13;13.15;64.48
71291;DHT22;59073;51.994;4.448;2023-06-04T03:07:41;13.21;64.32
71291;DHT22;59073;51.994;4.448;2023-06-04T03:10:09;13.21;64.18
71291;DHT22;59073;51.994;4.448;2023-06-04T03:12:35;13.23;63.79
71291;DHT22;59073;51.994;4.448;2023-06-04T03:15:01;13.26;63.34
71291;DHT22;59073;51.994;4.448;2023-06-04T03:17:27;13.32;63.32
71291;DHT22;59073;51.994;4.448;2023-06-04T03:19:53;13.29;63.34
71291;DHT22;59073;51.994;4.448;2023-06-04T03:22:18;13.18;63.36
71291;DHT22;59073;51.994;4.448;2023-06-04T03:24:44;13.16;63.54
71291;DHT22;59073;51.994;4.448;2023-06-04T03:27:11;13.11;64.07
71291;DHT22;59073;51.994;4.448;2023-06-04T03:29:37;13.15;63.59
71291;DHT22;59073;51.994;4.448;2023-06-04T03:32:03;13.25;63.00
71291;DHT22;59073;51.994;4.448;2023-06-04T03:34:28;13.16;63.15
71291;DHT22;59073;51.994;4.448;2023-06-04T03:36:57;13.22;62.93
71291;DHT22;59073;51.994;4.448;2023-06-04T03:39:23;13.26;62.86
71291;DHT22;59073;51.994;4.448;2023-06-04T03:41:49;13.14;62.91
71291;DHT22;59073;51.994;4.448;2023-06-04T03:44:18;13.14;62.98
71291;DHT22;59073;51.994;4.448;2023-06-04T03:46:44;13.21;62.72
71291;DHT22;59073;51.994;4.448;2023-06-04T03:49:11;13.19;62.72
71291;DHT22;59073;51.994;4.448;2023-06-04T03:51:41;13.25;62.62
71291;DHT22;59073;51.994;4.448;2023-06-04T03:54:06;13.34;62.36
71291;DHT22;59073;51.994;4.448;2023-06-04T03:56:32;13.48;61.98
71291;DHT22;59073;51.994;4.448;2023-06-04T03:58:57;13.80;60.63
71291;DHT22;59073;51.994;4.448;2023-06-04T04:01:23;14.17;59.58
71291;DHT22;59073;51.994;4.448;2023-06-04T04:03:50;14.25;58.99
71291;DHT22;59073;51.994;4.448;2023-06-04T04:06:16;14.28;58.86
71291;DHT22;59073;51.994;4.448;2023-06-04T04:08:42;14.40;58.41
71291;DHT22;59073;51.994;4.448;2023-06-04T04:11:12;14.38;58.22
71291;DHT22;59073;51.994;4.448;2023-06-04T04:13:38;14.75;57.71
71291;DHT22;59073;51.994;4.448;2023-06-04T04:16:03;15.02;56.91
71291;DHT22;59073;51.994;4.448;2023-06-04T04:18:36;15.41;55.31
71291;DHT22;59073;51.994;4.448;2023-06-04T04:21:02;15.65;54.41
71291;DHT22;59073;51.994;4.448;2023-06-04T04:23:29;15.62;53.40
71291;DHT22;59073;51.994;4.448;2023-06-04T04:25:55;15.90;53.83
71291;DHT22;59073;51.994;4.448;2023-06-04T04:28:26;16.15;52.93
71291;DHT22;59073;51.994;4.448;2023-06-04T04:30:58;16.39;52.56
71291;DHT22;59073;51.994;4.448;2023-06-04T04:33:28;16.42;52.20
71291;DHT22;59073;51.994;4.448;2023-06-04T04:35:58;16.12;52.36
71291;DHT22;59073;51.994;4.448;2023-06-04T04:38:25;16.09;52.25
71291;DHT22;59073;51.994;4.448;2023-06-04T04:40:50;16.23;51.97
71291;DHT22;59073;51.994;4.448;2023-06-04T04:43:29;16.30;52.74
71291;DHT22;59073;51.994;4.448;2023-06-04T04:45:54;16.57;51.36
71291;DHT22;59073;51.994;4.448;2023-06-04T04:48:19;17.00;51.16
71291;DHT22;59073;51.994;4.448;2023-06-04T04:50:45;16.79;50.08
71291;DHT22;59073;51.994;4.448;2023-06-04T04:53:11;17.00;50.44
71291;DHT22;59073;51.994;4.448;2023-06-04T04:55:36;17.21;49.62
71291;DHT22;59073;51.994;4.448;2023-06-04T04:58:01;16.97;49.67
71291;DHT22;59073;51.994;4.448;2023-06-04T05:00:28;17.03;50.03
71291;DHT22;59073;51.994;4.448;2023-06-04T05:02:54;17.36;49.16
71291;DHT22;59073;51.994;4.448;2023-06-04T05:05:19;17.56;48.49
71291;DHT22;59073;51.994;4.448;2023-06-04T05:07:45;17.66;48.30
71291;DHT22;59073;51.994;4.448;2023-06-04T05:10:10;17.41;49.95
71291;DHT22;59073;51.994;4.448;2023-06-04T05:12:35;17.52;48.60
71291;DHT22;59073;51.994;4.448;2023-06-04T05:15:01;17.52;50.25
71291;DHT22;59073;51.994;4.448;2023-06-04T05:17:26;17.58;49.34
71291;DHT22;59073;51.994;4.448;2023-06-04T05:19:55;17.43;49.10
71291;DHT22;59073;51.994;4.448;2023-06-04T05:22:31;17.96;48.96
71291;DHT22;59073;51.994;4.448;2023-06-04T05:24:57;18.26;47.77
71291;DHT22;59073;51.994;4.448;2023-06-04T05:27:25;18.38;47.95
71291;DHT22;59073;51.994;4.448;2023-06-04T05:29:51;17.87;48.18
71291;DHT22;59073;51.994;4.448;2023-06-04T05:32:16;17.66;50.13
71291;DHT22;59073;51.994;4.448;2023-06-04T05:34:43;17.85;48.89
71291;DHT22;59073;51.994;4.448;2023-06-04T05:37:08;18.00;50.02
71291;DHT22;59073;51.994;4.448;2023-06-04T05:39:34;18.26;47.41
71291;DHT22;59073;51.994;4.448;2023-06-04T05:42:01;18.41;47.62
71291;DHT22;59073;51.994;4.448;2023-06-04T05:44:26;18.68;47.12
71291;DHT22;59073;51.994;4.448;2023-06-04T05:46:52;19.02;47.00
71291;DHT22;59073;51.994;4.448;2023-06-04T05:49:17;18.74;47.23
71291;DHT22;59073;51.994;4.448;2023-06-04T05:51:44;18.37;47.03
71291;DHT22;59073;51.994;4.448;2023-06-04T05:54:10;18.21;47.82
71291;DHT22;59073;51.994;4.448;2023-06-04T05:56:35;18.51;48.43
71291;DHT22;59073;51.994;4.448;2023-06-04T05:59:01;18.79;47.60
71291;DHT22;59073;51.994;4.448;2023-06-04T06:01:26;18.95;46.41
71291;DHT22;59073;51.994;4.448;2023-06-04T06:03:51;18.75;47.55
71291;DHT22;59073;51.994;4.448;2023-06-04T06:06:17;19.02;47.11
71291;DHT22;59073;51.994;4.448;2023-06-04T06:08:43;19.39;46.63
71291;DHT22;59073;51.994;4.448;2023-06-04T06:11:09;19.37;46.64
71291;DHT22;59073;51.994;4.448;2023-06-04T06:13:34;19.42;45.45
71291;DHT22;59073;51.994;4.448;2023-06-04T06:15:59;19.69;46.08
71291;DHT22;59073;51.994;4.448;2023-06-04T06:18:25;19.73;46.04
71291;DHT22;59073;51.994;4.448;2023-06-04T06:20:50;19.53;47.27
71291;DHT22;59073;51.994;4.448;2023-06-04T06:23:16;20.12;45.93
71291;DHT22;59073;51.994;4.448;2023-06-04T06:25:42;20.28;44.79
71291;DHT22;59073;51.994;4.448;2023-06-04T06:28:11;18.98;47.91
71291;DHT22;59073;51.994;4.448;2023-06-04T06:30:37;18.50;48.53
71291;DHT22;59073;51.994;4.448;2023-06-04T06:33:02;19.40;46.73
71291;DHT22;59073;51.994;4.448;2023-06-04T06:35:28;20.10;45.50
71291;DHT22;59073;51.994;4.448;2023-06-04T06:37:53;20.31;44.15
71291;DHT22;59073;51.994;4.448;2023-06-04T06:40:19;20.04;44.68
71291;DHT22;59073;51.994;4.448;2023-06-04T06:42:49;20.04;44.52
71291;DHT22;59073;51.994;4.448;2023-06-04T06:45:17;19.02;46.33
71291;DHT22;59073;51.994;4.448;2023-06-04T06:47:43;19.16;46.36
71291;DHT22;59073;51.994;4.448;2023-06-04T06:50:08;19.26;46.17
71291;DHT22;59073;51.994;4.448;2023-06-04T06:52:34;18.99;44.76
71291;DHT22;59073;51.994;4.448;2023-06-04T06:54:59;19.39;46.41
71291;DHT22;59073;51.994;4.448;2023-06-04T06:57:25;19.54;47.19
71291;DHT22;59073;51.994;4.448;2023-06-04T06:59:50;19.46;46.98
71291;DHT22;59073;51.994;4.448;2023-06-04T07:02:17;19.06;47.49
71291;DHT22;59073;51.994;4.448;2023-06-04T07:04:42;18.84;45.66
71291;DHT22;59073;51.994;4.448;2023-06-04T07:07:08;18.98;49.33
71291;DHT22;59073;51.994;4.448;2023-06-04T07:09:33;19.05;47.83
71291;DHT22;59073;51.994;4.448;2023-06-04T07:11:59;19.01;48.41
71291;DHT22;59073;51.994;4.448;2023-06-04T07:14:24;18.82;47.83
71291;DHT22;59073;51.994;4.448;2023-06-04T07:16:50;18.78;47.92
71291;DHT22;59073;51.994;4.448;2023-06-04T07:19:15;19.11;45.77
71291;DHT22;59073;51.994;4.448;2023-06-04T07:21:40;19.06;47.48
71291;DHT22;59073;51.994;4.448;2023-06-04T07:24:06;18.67;47.24
71291;DHT22;59073;51.994;4.448;2023-06-04T07:26:32;18.99;48.73
71291;DHT22;59073;51.994;4.448;2023-06-04T07:28:57;19.33;48.76
71291;DHT22;59073;51.994;4.448;2023-06-04T07:31:23;19.24;46.15
71291;DHT22;59073;51.994;4.448;2023-06-04T07:33:48;19.13;45.77
71291;DHT22;59073;51.994;4.448;2023-06-04T07:36:14;19.18;45.69
71291;DHT22;59073;51.994;4.448;2023-06-04T07:38:40;19.49;46.21
71291;DHT22;59073;51.994;4.448;2023-06-04T07:41:05;19.11;45.91
71291;DHT22;59073;51.994;4.448;2023-06-04T07:43:33;19.26;44.94
71291;DHT22;59073;51.994;4.448;2023-06-04T07:46:00;19.26;47.55
71291;DHT22;59073;51.994;4.448;2023-06-04T07:48:25;19.12;47.54
71291;DHT22;59073;51.994;4.448;2023-06-04T07:50:59;19.15;46.61
71291;DHT22;59073;51.994;4.448;2023-06-04T07:53:25;19.32;46.16
71291;DHT22;59073;51.994;4.448;2023-06-04T07:55:52;19.73;48.80
71291;DHT22;59073;51.994;4.448;2023-06-04T07:58:17;19.47;47.81
71291;DHT22;59073;51.994;4.448;2023-06-04T08:00:43;19.90;47.99
71291;DHT22;59073;51.994;4.448;2023-06-04T08:03:08;20.02;46.11
71291;DHT22;59073;51.994;4.448;2023-06-04T08:05:34;20.08;44.84
71291;DHT22;59073;51.994;4.448;2023-06-04T08:08:00;20.15;47.39
71291;DHT22;59073;51.994;4.448;2023-06-04T08:10:26;19.90;46.99
71291;DHT22;59073;51.994;4.448;2023-06-04T08:12:51;20.02;47.96
71291;DHT22;59073;51.994;4.448;2023-06-04T08:15:17;20.12;48.82
71291;DHT22;59073;51.994;4.448;2023-06-04T08:17:42;19.83;50.26
71291;DHT22;59073;51.994;4.448;2023-06-04T08:20:08;19.83;49.44
71291;DHT22;59073;51.994;4.448;2023-06-04T08:22:34;19.85;51.04
71291;DHT22;59073;51.994;4.448;2023-06-04T08:24:59;20.01;48.58
71291;DHT22;59073;51.994;4.448;2023-06-04T08:27:25;20.20;47.16
71291;DHT22;59073;51.994;4.448;2023-06-04T08:29:50;20.24;48.02
71291;DHT22;59073;51.994;4.448;2023-06-04T08:32:18;20.31;50.15
71291;DHT22;59073;51.994;4.448;2023-06-04T08:34:43;20.62;50.21
71291;DHT22;59073;51.994;4.448;2023-06-04T08:37:09;20.79;48.80
71291;DHT22;59073;51.994;4.448;2023-06-04T08:39:34;20.51;47.00
71291;DHT22;59073;51.994;4.448;2023-06-04T08:42:01;20.10;48.75
71291;DHT22;59073;51.994;4.448;2023-06-04T08:44:29;19.90;47.49
71291;DHT22;59073;51.994;4.448;2023-06-04T08:47:04;20.07;46.96
71291;DHT22;59073;51.994;4.448;2023-06-04T08:49:35;20.52;48.29
71291;DHT22;59073;51.994;4.448;2023-06-04T08:52:04;20.66;47.92
71291;DHT22;59073;51.994;4.448;2023-06-04T08:54:32;20.72;46.43
71291;DHT22;59073;51.994;4.448;2023-06-04T08:57:00;20.83;47.32
71291;DHT22;59073;51.994;4.448;2023-06-04T08:59:27;21.14;47.43
71291;DHT22;59073;51.994;4.448;2023-06-04T09:01:57;20.72;45.65
71291;DHT22;59073;51.994;4.448;2023-06-04T09:04:24;20.69;46.55
71291;DHT22;59073;51.994;4.448;2023-06-04T09:06:50;21.00;47.88
71291;DHT22;59073;51.994;4.448;2023-06-04T09:09:17;21.14;47.38
71291;DHT22;59073;51.994;4.448;2023-06-04T09:11:54;21.07;48.77
71291;DHT22;59073;51.994;4.448;2023-06-04T09:14:20;20.77;47.75
71291;DHT22;59073;51.994;4.448;2023-06-04T09:16:48;20.63;47.51
71291;DHT22;59073;51.994;4.448;2023-06-04T09:19:15;21.27;49.60
71291;DHT22;59073;51.994;4.448;2023-06-04T09:21:58;21.47;48.98
71291;DHT22;59073;51.994;4.448;2023-06-04T09:24:38;21.52;46.90
71291;DHT22;59073;51.994;4.448;2023-06-04T09:27:18;21.26;45.64
71291;DHT22;59073;51.994;4.448;2023-06-04T09:29:51;21.61;45.37
71291;DHT22;59073;51.994;4.448;2023-06-04T09:32:28;21.66;46.13
71291;DHT22;59073;51.994;4.448;2023-06-04T09:35:15;21.57;45.93
71291;DHT22;59073;51.994;4.448;2023-06-04T09:37:40;21.61;44.71
71291;DHT22;59073;51.994;4.448;2023-06-04T09:40:08;21.34;44.44
71291;DHT22;59073;51.994;4.448;2023-06-04T09:42:42;21.45;45.91
71291;DHT22;59073;51.994;4.448;2023-06-04T09:45:09;21.48;44.07
71291;DHT22;59073;51.994;4.448;2023-06-04T09:47:44;21.24;44.28
71291;DHT22;59073;51.994;4.448;2023-06-04T09:50:13;21.28;46.56
71291;DHT22;59073;51.994;4.448;2023-06-04T09:52:38;21.37;45.52
71291;DHT22;59073;51.994;4.448;2023-06-04T09:55:17;21.24;44.58
71291;DHT22;59073;51.994;4.448;2023-06-04T09:57:49;21.74;46.42
71291;DHT22;59073;51.994;4.448;2023-06-04T10:00:23;21.52;46.01
71291;DHT22;59073;51.994;4.448;2023-06-04T10:02:51;21.81;43.94
71291;DHT22;59073;51.994;4.448;2023-06-04T10:05:20;21.81;43.34
71291;DHT22;59073;51.994;4.448;2023-06-04T10:07:50;22.08;45.34
71291;DHT22;59073;51.994;4.448;2023-06-04T10:10:21;22.20;46.15
71291;DHT22;59073;51.994;4.448;2023-06-04T10:12:51;22.32;43.65
71291;DHT22;59073;51.994;4.448;2023-06-04T10:15:20;21.86;43.60
71291;DHT22;59073;51.994;4.448;2023-06-04T10:17:47;21.79;44.84
71291;DHT22;59073;51.994;4.448;2023-06-04T10:20:13;22.43;46.41
71291;DHT22;59073;51.994;4.448;2023-06-04T10:22:40;21.93;43.23
71291;DHT22;59073;51.994;4.448;2023-06-04T10:25:06;21.69;44.07
71291;DHT22;59073;51.994;4.448;2023-06-04T10:27:34;22.02;45.82
71291;DHT22;59073;51.994;4.448;2023-06-04T10:30:04;22.01;46.90
71291;DHT22;59073;51.994;4.448;2023-06-04T10:32:30;22.35;43.76
71291;DHT22;59073;51.994;4.448;2023-06-04T10:34:56;22.10;44.15
71291;DHT22;59073;51.994;4.448;2023-06-04T10:37:26;21.58;45.22
71291;DHT22;59073;51.994;4.448;2023-06-04T10:39:56;21.89;45.89
71291;DHT22;59073;51.994;4.448;2023-06-04T10:42:24;22.49;44.00
71291;DHT22;59073;51.994;4.448;2023-06-04T10:44:52;22.23;45.32
71291;DHT22;59073;51.994;4.448;2023-06-04T10:47:23;22.36;44.16
71291;DHT22;59073;51.994;4.448;2023-06-04T10:49:53;21.78;42.02
71291;DHT22;59073;51.994;4.448;2023-06-04T10:52:20;22.06;42.96
71291;DHT22;59073;51.994;4.448;2023-06-04T10:54:47;22.20;44.57
71291;DHT22;59073;51.994;4.448;2023-06-04T10:57:16;21.96;43.69
71291;DHT22;59073;51.994;4.448;2023-06-04T10:59:54;21.64;45.11
71291;DHT22;59073;51.994;4.448;2023-06-04T11:02:19;21.99;45.99
71291;DHT22;59073;51.994;4.448;2023-06-04T11:04:46;22.53;43.20
71291;DHT22;59073;51.994;4.448;2023-06-04T11:07:11;22.30;44.40
71291;DHT22;59073;51.994;4.448;2023-06-04T11:09:47;22.64;45.96
71291;DHT22;59073;51.994;4.448;2023-06-04T11:12:13;22.35;43.07
71291;DHT22;59073;51.994;4.448;2023-06-04T11:14:38;22.09;42.23
71291;DHT22;59073;51.994;4.448;2023-06-04T11:17:11;22.46;43.31
71291;DHT22;59073;51.994;4.448;2023-06-04T11:19:37;22.74;43.62
71291;DHT22;59073;51.994;4.448;2023-06-04T11:22:05;22.84;39.61
71291;DHT22;59073;51.994;4.448;2023-06-04T11:24:32;22.51;41.79
71291;DHT22;59073;51.994;4.448;2023-06-04T11:26:58;22.28;42.12
71291;DHT22;59073;51.994;4.448;2023-06-04T11:29:28;22.50;41.38
71291;DHT22;59073;51.994;4.448;2023-06-04T11:31:53;22.63;42.14
71291;DHT22;59073;51.994;4.448;2023-06-04T11:34:27;22.50;41.69
71291;DHT22;59073;51.994;4.448;2023-06-04T11:36:53;22.63;42.84
71291;DHT22;59073;51.994;4.448;2023-06-04T11:39:19;22.42;40.27
71291;DHT22;59073;51.994;4.448;2023-06-04T11:41:46;22.23;41.01
71291;DHT22;59073;51.994;4.448;2023-06-04T11:44:13;22.30;40.94
71291;DHT22;59073;51.994;4.448;2023-06-04T11:46:42;22.46;44.93
71291;DHT22;59073;51.994;4.448;2023-06-04T11:49:18;22.90;41.07
71291;DHT22;59073;51.994;4.448;2023-06-04T11:51:48;22.54;42.42
71291;DHT22;59073;51.994;4.448;2023-06-04T11:54:16;22.88;39.87
71291;DHT22;59073;51.994;4.448;2023-06-04T11:56:42;22.70;38.34
71291;DHT22;59073;51.994;4.448;2023-06-04T11:59:16;22.64;35.55
71291;DHT22;59073;51.994;4.448;2023-06-04T12:01:47;22.64;42.00
71291;DHT22;59073;51.994;4.448;2023-06-04T12:04:14;22.33;38.22
71291;DHT22;59073;51.994;4.448;2023-06-04T12:06:53;22.74;40.70
71291;DHT22;59073;51.994;4.448;2023-06-04T12:09:20;22.63;39.81
71291;DHT22;59073;51.994;4.448;2023-06-04T12:11:46;22.40;39.40
71291;DHT22;59073;51.994;4.448;2023-06-04T12:14:16;22.67;42.57
71291;DHT22;59073;51.994;4.448;2023-06-04T12:16:43;22.92;40.47
71291;DHT22;59073;51.994;4.448;2023-06-04T12:19:11;23.10;40.84
71291;DHT22;59073;51.994;4.448;2023-06-04T12:21:38;22.81;38.98
71291;DHT22;59073;51.994;4.448;2023-06-04T12:24:12;23.41;37.48
71291;DHT22;59073;51.994;4.448;2023-06-04T12:26:40;23.67;38.72
71291;DHT22;59073;51.994;4.448;2023-06-04T12:29:16;22.56;39.54
71291;DHT22;59073;51.994;4.448;2023-06-04T12:31:44;22.44;41.53
71291;DHT22;59073;51.994;4.448;2023-06-04T12:34:14;22.74;41.38
71291;DHT22;59073;51.994;4.448;2023-06-04T12:36:40;22.78;39.79
71291;DHT22;59073;51.994;4.448;2023-06-04T12:39:06;23.00;41.50
71291;DHT22;59073;51.994;4.448;2023-06-04T12:41:33;22.71;40.49
71291;DHT22;59073;51.994;4.448;2023-06-04T12:44:00;22.22;41.53
71291;DHT22;59073;51.994;4.448;2023-06-04T12:46:26;22.30;40.46
71291;DHT22;59073;51.994;4.448;2023-06-04T12:48:53;22.37;37.69
71291;DHT22;59073;51.994;4.448;2023-06-04T12:51:20;22.43;40.42
71291;DHT22;59073;51.994;4.448;2023-06-04T12:53:47;22.78;38.35
71291;DHT22;59073;51.994;4.448;2023-06-04T12:56:12;22.44;40.68
71291;DHT22;59073;51.994;4.448;2023-06-04T12:58:38;22.44;40.94
71291;DHT22;59073;51.994;4.448;2023-06-04T13:01:03;22.75;39.14
71291;DHT22;59073;51.994;4.448;2023-06-04T13:03:33;22.54;38.75
71291;DHT22;59073;51.994;4.448;2023-06-04T13:05:59;22.80;39.29
71291;DHT22;59073;51.994;4.448;2023-06-04T13:08:24;23.32;39.18
71291;DHT22;59073;51.994;4.448;2023-06-04T13:10:51;23.45;39.24
71291;DHT22;59073;51.994;4.448;2023-06-04T13:13:18;23.05;39.16
71291;DHT22;59073;51.994;4.448;2023-06-04T13:15:44;22.73;38.15
71291;DHT22;59073;51.994;4.448;2023-06-04T13:18:10;22.95;39.80
71291;DHT22;59073;51.994;4.448;2023-06-04T13:20:36;23.00;39.90
71291;DHT22;59073;51.994;4.448;2023-06-04T13:23:02;22.94;41.10
71291;DHT22;59073;51.994;4.448;2023-06-04T13:25:27;22.56;39.56
71291;DHT22;59073;51.994;4.448;2023-06-04T13:27:58;22.50;41.30
71291;DHT22;59073;51.994;4.448;2023-06-04T13:30:24;22.77;41.78
71291;DHT22;59073;51.994;4.448;2023-06-04T13:32:49;22.49;40.00
71291;DHT22;59073;51.994;4.448;2023-06-04T13:35:15;22.63;40.76
71291;DHT22;59073;51.994;4.448;2023-06-04T13:37:40;23.10;41.91
71291;DHT22;59073;51.994;4.448;2023-06-04T13:40:06;23.29;41.14
71291;DHT22;59073;51.994;4.448;2023-06-04T13:42:33;23.29;39.71
71291;DHT22;59073;51.994;4.448;2023-06-04T13:44:58;22.81;38.63
71291;DHT22;59073;51.994;4.448;2023-06-04T13:47:25;22.73;40.76
71291;DHT22;59073;51.994;4.448;2023-06-04T13:49:50;22.77;40.17
71291;DHT22;59073;51.994;4.448;2023-06-04T13:52:16;22.73;41.75
71291;DHT22;59073;51.994;4.448;2023-06-04T13:54:43;22.87;42.59
71291;DHT22;59073;51.994;4.448;2023-06-04T13:57:08;23.05;40.98
71291;DHT22;59073;51.994;4.448;2023-06-04T13:59:39;22.92;41.08
71291;DHT22;59073;51.994;4.448;2023-06-04T14:02:06;22.78;41.31
71291;DHT22;59073;51.994;4.448;2023-06-04T14:04:32;22.64;41.30
71291;DHT22;59073;51.994;4.448;2023-06-04T14:06:58;22.23;46.33
71291;DHT22;59073;51.994;4.448;2023-06-04T14:09:24;22.22;50.20
71291;DHT22;59073;51.994;4.448;2023-06-04T14:11:50;22.09;49.78
71291;DHT22;59073;51.994;4.448;2023-06-04T14:14:20;22.05;51.44
71291;DHT22;59073;51.994;4.448;2023-06-04T14:16:49;21.83;53.28
71291;DHT22;59073;51.994;4.448;2023-06-04T14:19:15;21.71;51.23
71291;DHT22;59073;51.994;4.448;2023-06-04T14:21:42;21.71;50.56
71291;DHT22;59073;51.994;4.448;2023-06-04T14:24:09;21.75;49.53
71291;DHT22;59073;51.994;4.448;2023-06-04T14:26:35;21.50;52.38
71291;DHT22;59073;51.994;4.448;2023-06-04T14:29:01;21.52;52.11
71291;DHT22;59073;51.994;4.448;2023-06-04T14:31:26;21.52;51.92
71291;DHT22;59073;51.994;4.448;2023-06-04T14:33:52;21.33;56.33
71291;DHT22;59073;51.994;4.448;2023-06-04T14:36:18;21.54;55.12
71291;DHT22;59073;51.994;4.448;2023-06-04T14:38:43;21.44;55.13
71291;DHT22;59073;51.994;4.448;2023-06-04T14:41:10;21.28;52.83
71291;DHT22;59073;51.994;4.448;2023-06-04T14:43:36;20.99;54.42
71291;DHT22;59073;51.994;4.448;2023-06-04T14:46:01;21.04;53.63
71291;DHT22;59073;51.994;4.448;2023-06-04T14:48:27;20.82;56.87
71291;DHT22;59073;51.994;4.448;2023-06-04T14:50:52;20.86;55.61
71291;DHT22;59073;51.994;4.448;2023-06-04T14:53:22;21.15;55.44
71291;DHT22;59073;51.994;4.448;2023-06-04T14:55:48;21.50;56.00
71291;DHT22;59073;51.994;4.448;2023-06-04T14:58:13;21.35;53.56
71291;DHT22;59073;51.994;4.448;2023-06-04T15:00:39;21.08;54.63
71291;DHT22;59073;51.994;4.448;2023-06-04T15:03:05;20.89;56.78
71291;DHT22;59073;51.994;4.448;2023-06-04T15:05:33;20.89;57.23
71291;DHT22;59073;51.994;4.448;2023-06-04T15:07:59;20.90;57.65
71291;DHT22;59073;51.994;4.448;2023-06-04T15:10:26;20.72;56.86
71291;DHT22;59073;51.994;4.448;2023-06-04T15:12:55;20.83;56.17
71291;DHT22;59073;51.994;4.448;2023-06-04T15:15:21;20.71;58.83
71291;DHT22;59073;51.994;4.448;2023-06-04T15:17:47;20.79;57.40
71291;DHT22;59073;51.994;4.448;2023-06-04T15:20:13;20.69;56.60
71291;DHT22;59073;51.994;4.448;2023-06-04T15:22:39;20.51;56.58
71291;DHT22;59073;51.994;4.448;2023-06-04T15:25:04;20.48;55.93
71291;DHT22;59073;51.994;4.448;2023-06-04T15:27:30;20.43;57.81
71291;DHT22;59073;51.994;4.448;2023-06-04T15:29:56;20.65;58.19
71291;DHT22;59073;51.994;4.448;2023-06-04T15:32:21;20.77;56.94
71291;DHT22;59073;51.994;4.448;2023-06-04T15:34:47;20.49;56.95